createdAt,value
2023-04-21T00:01:23.099Z,100.00
2023-04-21T00:03:53.253Z,100.00
2023-04-21T00:06:23.031Z,100.00
2023-04-21T00:08:52.872Z,100.00
2023-04-21T00:11:19.664Z,100.00
2023-04-21T00:13:46.523Z,100.00
2023-04-21T00:16:13.113Z,100.00
2023-04-21T00:18:40.052Z,100.00
2023-04-21T00:21:06.640Z,100.00
2023-04-21T00:23:33.381Z,100.00
2023-04-21T00:26:02.665Z,100.00
2023-04-21T00:28:29.840Z,100.00
2023-04-21T00:30:58.015Z,100.00
2023-04-21T00:33:26.790Z,100.00
2023-04-21T00:35:57.278Z,100.00
2023-04-21T00:38:23.828Z,100.00
2023-04-21T00:40:50.704Z,100.00
2023-04-21T00:43:17.435Z,100.00
2023-04-21T00:45:46.940Z,100.00
2023-04-21T00:48:13.967Z,100.00
2023-04-21T00:50:41.257Z,100.00
2023-04-21T00:53:09.442Z,100.00
2023-04-21T00:55:36.365Z,100.00
2023-04-21T00:58:03.898Z,100.00
2023-04-21T01:00:30.891Z,100.00
2023-04-21T01:02:58.172Z,100.00
2023-04-21T01:05:25.156Z,100.00
2023-04-21T01:07:52.045Z,100.00
2023-04-21T01:10:18.702Z,100.00
2023-04-21T01:12:47.509Z,100.00
2023-04-21T01:15:16.070Z,100.00
2023-04-21T01:17:43.620Z,100.00
2023-04-21T01:20:14.101Z,100.00
2023-04-21T01:22:42.284Z,100.00
2023-04-21T01:25:09.299Z,100.00
2023-04-21T01:27:36.503Z,100.00
2023-04-21T01:30:04.302Z,100.00
2023-04-21T01:32:33.833Z,100.00
2023-04-21T01:35:01.598Z,100.00
2023-04-21T01:37:32.084Z,100.00
2023-04-21T01:40:01.188Z,100.00
2023-04-21T01:42:29.442Z,100.00
2023-04-21T01:44:58.430Z,100.00
2023-04-21T01:47:25.584Z,100.00
2023-04-21T01:49:52.952Z,100.00
2023-04-21T01:52:19.780Z,100.00
2023-04-21T01:54:46.598Z,100.00
2023-04-21T01:57:14.616Z,100.00
2023-04-21T01:59:41.356Z,100.00
2023-04-21T02:02:08.589Z,100.00
2023-04-21T02:04:35.801Z,100.00
2023-04-21T02:07:03.088Z,100.00
2023-04-21T02:09:29.702Z,100.00
2023-04-21T02:12:00.364Z,100.00
2023-04-21T02:14:28.034Z,100.00
2023-04-21T02:16:56.382Z,100.00
2023-04-21T02:19:23.924Z,100.00
2023-04-21T02:21:50.592Z,100.00
2023-04-21T02:24:17.333Z,100.00
2023-04-21T02:26:45.572Z,100.00
2023-04-21T02:29:12.733Z,100.00
2023-04-21T02:31:53.868Z,100.00
2023-04-21T02:34:24.326Z,100.00
2023-04-21T02:36:51.052Z,100.00
2023-04-21T02:39:19.330Z,100.00
2023-04-21T02:41:46.098Z,100.00
2023-04-21T02:44:12.743Z,100.00
2023-04-21T02:46:42.748Z,100.00
2023-04-21T02:49:12.418Z,100.00
2023-04-21T02:51:39.066Z,100.00
2023-04-21T02:54:05.968Z,100.00
2023-04-21T02:56:34.658Z,100.00
2023-04-21T02:59:01.381Z,100.00
2023-04-21T03:01:28.260Z,100.00
2023-04-21T03:03:54.878Z,100.00
2023-04-21T03:06:21.546Z,100.00
2023-04-21T03:08:48.140Z,100.00
2023-04-21T03:11:15.026Z,100.00
2023-04-21T03:13:41.656Z,100.00
2023-04-21T03:16:08.324Z,100.00
2023-04-21T03:18:36.397Z,100.00
2023-04-21T03:21:03.243Z,100.00
2023-04-21T03:23:30.382Z,100.00
2023-04-21T03:25:57.224Z,100.00
2023-04-21T03:28:23.778Z,100.00
2023-04-21T03:30:51.911Z,100.00
2023-04-21T03:33:19.099Z,100.00
2023-04-21T03:35:45.950Z,100.00
2023-04-21T03:38:12.810Z,100.00
2023-04-21T03:40:39.351Z,100.00
2023-04-21T03:43:06.674Z,100.00
2023-04-21T03:45:35.992Z,100.00
2023-04-21T03:48:03.652Z,100.00
2023-04-21T03:50:30.823Z,100.00
2023-04-21T03:55:23.994Z,100.00
2023-04-21T03:57:50.538Z,100.00
2023-04-21T04:00:17.153Z,100.00
2023-04-21T04:02:45.182Z,100.00
2023-04-21T04:05:12.126Z,100.00
2023-04-21T04:07:38.796Z,100.00
2023-04-21T04:10:05.849Z,100.00
2023-04-21T04:12:32.396Z,100.00
2023-04-21T04:14:59.070Z,100.00
2023-04-21T04:17:25.870Z,100.00
2023-04-21T04:19:52.567Z,100.00
2023-04-21T04:22:19.062Z,100.00
2023-04-21T04:24:45.753Z,100.00
2023-04-21T04:27:14.142Z,100.00
2023-04-21T04:29:41.143Z,100.00
2023-04-21T04:32:11.373Z,100.00
2023-04-21T04:34:38.202Z,100.00
2023-04-21T04:37:04.937Z,100.00
2023-04-21T04:39:32.270Z,100.00
2023-04-21T04:41:59.362Z,100.00
2023-04-21T04:44:26.014Z,100.00
2023-04-21T04:46:52.816Z,100.00
2023-04-21T04:49:19.745Z,100.00
2023-04-21T04:51:47.307Z,100.00
2023-04-21T04:54:14.071Z,100.00
2023-04-21T04:56:40.693Z,100.00
2023-04-21T04:59:07.516Z,100.00
2023-04-21T05:01:34.350Z,100.00
2023-04-21T05:04:01.140Z,100.00
2023-04-21T05:06:28.712Z,100.00
2023-04-21T05:08:56.116Z,100.00
2023-04-21T05:11:23.388Z,100.00
2023-04-21T05:13:50.009Z,100.00
2023-04-21T05:16:16.815Z,100.00
2023-04-21T05:18:43.566Z,100.00
2023-04-21T05:21:10.330Z,100.00
2023-04-21T05:23:37.016Z,100.00
2023-04-21T05:26:04.684Z,100.00
2023-04-21T05:28:32.050Z,100.00
2023-04-21T05:30:58.845Z,100.00
2023-04-21T05:33:27.083Z,100.00
2023-04-21T05:35:53.653Z,100.00
2023-04-21T05:38:20.201Z,100.00
2023-04-21T05:40:54.124Z,100.00
2023-04-21T05:43:21.030Z,100.00
2023-04-21T05:45:48.105Z,100.00
2023-04-21T05:48:14.853Z,100.00
2023-04-21T05:50:41.493Z,100.00
2023-04-21T05:53:10.741Z,100.00
2023-04-21T05:55:37.897Z,100.00
2023-04-21T05:58:05.362Z,100.00
2023-04-21T06:00:32.029Z,100.00
2023-04-21T06:02:58.784Z,100.00
2023-04-21T06:05:25.911Z,100.00
2023-04-21T06:07:52.743Z,100.00
2023-04-21T06:10:19.595Z,100.00
2023-04-21T06:12:46.187Z,100.00
2023-04-21T06:15:13.088Z,100.00
2023-04-21T06:17:39.703Z,100.00
2023-04-21T06:20:08.019Z,100.00
2023-04-21T06:22:34.618Z,100.00
2023-04-21T06:25:01.218Z,100.00
2023-04-21T06:27:27.959Z,100.00
2023-04-21T06:29:56.194Z,100.00
2023-04-21T06:32:23.067Z,100.00
2023-04-21T06:34:49.634Z,100.00
2023-04-21T06:37:16.469Z,100.00
2023-04-21T06:39:43.278Z,100.00
2023-04-21T06:42:10.016Z,100.00
2023-04-21T06:44:42.265Z,100.00
2023-04-21T06:47:08.905Z,100.00
2023-04-21T06:49:37.349Z,100.00
2023-04-21T06:52:04.550Z,100.00
2023-04-21T06:54:31.166Z,100.00
2023-04-21T06:56:57.994Z,100.00
2023-04-21T06:59:24.638Z,100.00
2023-04-21T07:01:52.422Z,100.00
2023-04-21T07:04:19.730Z,100.00
2023-04-21T07:06:47.089Z,100.00
2023-04-21T07:09:13.776Z,100.00
2023-04-21T07:11:40.669Z,100.00
2023-04-21T07:14:07.460Z,100.00
2023-04-21T07:16:34.107Z,100.00
2023-04-21T07:19:00.832Z,100.00
2023-04-21T07:21:27.489Z,100.00
2023-04-21T07:23:54.054Z,100.00
2023-04-21T07:26:20.990Z,100.00
2023-04-21T07:28:47.619Z,100.00
2023-04-21T07:31:14.201Z,100.00
2023-04-21T07:33:40.969Z,100.00
2023-04-21T07:36:07.802Z,100.00
2023-04-21T07:38:34.826Z,100.00
2023-04-21T07:41:01.508Z,100.00
2023-04-21T07:43:30.292Z,100.00
2023-04-21T07:45:57.881Z,100.00
2023-04-21T07:48:24.564Z,100.00
2023-04-21T07:50:51.308Z,100.00
2023-04-21T07:53:17.936Z,100.00
2023-04-21T07:55:44.530Z,100.00
2023-04-21T07:58:11.231Z,100.00
2023-04-21T08:00:37.856Z,100.00
2023-04-21T08:03:04.565Z,100.00
2023-04-21T08:05:35.019Z,100.00
2023-04-21T08:08:04.878Z,100.00
2023-04-21T08:10:46.613Z,100.00
2023-04-21T08:13:13.275Z,100.00
2023-04-21T08:15:39.816Z,100.00
2023-04-21T08:18:06.967Z,100.00
2023-04-21T08:20:33.623Z,100.00
2023-04-21T08:23:00.594Z,100.00
2023-04-21T08:25:27.211Z,100.00
2023-04-21T08:27:53.990Z,100.00
2023-04-21T08:30:20.743Z,100.00
2023-04-21T08:32:47.335Z,100.00
2023-04-21T08:35:14.304Z,100.00
2023-04-21T08:37:41.733Z,100.00
2023-04-21T08:40:08.759Z,100.00
2023-04-21T08:42:36.939Z,100.00
2023-04-21T08:45:04.116Z,100.00
2023-04-21T08:47:33.118Z,100.00
2023-04-21T08:49:59.774Z,100.00
2023-04-21T08:52:26.472Z,100.00
2023-04-21T08:54:53.279Z,100.00
2023-04-21T08:57:19.965Z,100.00
2023-04-21T08:59:46.727Z,100.00
2023-04-21T09:02:18.825Z,100.00
2023-04-21T09:04:51.689Z,100.00
2023-04-21T09:07:32.206Z,100.00
2023-04-21T09:10:00.724Z,100.00
2023-04-21T09:12:28.104Z,100.00
2023-04-21T09:14:55.301Z,100.00
2023-04-21T09:17:27.424Z,100.00
2023-04-21T09:19:55.292Z,100.00
2023-04-21T09:22:27.473Z,100.00
2023-04-21T09:25:00.383Z,100.00
2023-04-21T09:27:28.379Z,100.00
2023-04-21T09:29:55.739Z,100.00
2023-04-21T09:32:22.704Z,100.00
2023-04-21T09:34:49.512Z,100.00
2023-04-21T09:37:18.762Z,100.00
2023-04-21T09:40:03.357Z,100.00
2023-04-21T09:42:34.988Z,100.00
2023-04-21T09:45:16.815Z,100.00
2023-04-21T09:47:51.998Z,100.00
2023-04-21T09:50:33.430Z,100.00
2023-04-21T09:53:09.761Z,100.00
2023-04-21T09:55:36.931Z,100.00
2023-04-21T09:58:07.002Z,100.00
2023-04-21T10:00:39.251Z,100.00
2023-04-21T10:03:10.559Z,100.00
2023-04-21T10:05:42.069Z,100.00
2023-04-21T10:08:11.521Z,100.00
2023-04-21T10:10:39.728Z,100.00
2023-04-21T10:13:07.414Z,100.00
2023-04-21T10:15:41.912Z,100.00
2023-04-21T10:18:23.270Z,100.00
2023-04-21T10:20:53.472Z,100.00
2023-04-21T10:23:36.647Z,100.00
2023-04-21T10:26:06.133Z,100.00
2023-04-21T10:28:40.954Z,100.00
2023-04-21T10:31:16.832Z,100.00
2023-04-21T10:34:06.698Z,94.15
2023-04-21T10:36:43.495Z,97.69
2023-04-21T10:39:13.192Z,93.46
2023-04-21T10:41:39.906Z,90.18
2023-04-21T10:44:16.390Z,86.80
2023-04-21T10:46:52.192Z,90.26
2023-04-21T10:49:32.207Z,96.49
2023-04-21T10:51:58.842Z,100.00
2023-04-21T10:54:45.584Z,99.98
2023-04-21T10:57:15.400Z,87.70
2023-04-21T10:59:42.464Z,93.42
2023-04-21T11:02:12.473Z,92.85
2023-04-21T11:04:48.021Z,77.45
2023-04-21T11:07:18.912Z,83.05
2023-04-21T11:09:47.729Z,73.03
2023-04-21T11:12:18.156Z,60.70
2023-04-21T11:14:47.977Z,61.98
2023-04-21T11:17:16.910Z,58.29
2023-04-21T11:19:54.278Z,53.05
2023-04-21T11:22:26.992Z,48.64
2023-04-21T11:24:55.445Z,46.20
2023-04-21T11:27:22.620Z,42.35
2023-04-21T11:29:50.679Z,42.44
2023-04-21T11:32:18.064Z,43.81
2023-04-21T11:34:45.741Z,42.55
2023-04-21T11:37:17.500Z,41.72
2023-04-21T11:39:44.381Z,39.89
2023-04-21T11:42:11.953Z,37.80
2023-04-21T11:44:41.812Z,36.72
2023-04-21T11:47:19.912Z,36.72
2023-04-21T11:49:47.856Z,38.16
2023-04-21T11:52:45.459Z,37.78
2023-04-21T11:55:17.899Z,37.36
2023-04-21T11:57:44.813Z,37.88
2023-04-21T12:00:15.926Z,37.14
2023-04-21T12:02:43.910Z,36.30
2023-04-21T12:05:13.244Z,38.50
2023-04-21T12:07:45.007Z,37.66
2023-04-21T12:10:13.364Z,36.37
2023-04-21T12:12:41.222Z,34.84
2023-04-21T12:15:09.661Z,34.71
2023-04-21T12:17:51.054Z,36.25
2023-04-21T12:20:19.734Z,35.30
2023-04-21T12:22:46.770Z,33.88
2023-04-21T12:25:13.930Z,32.71
2023-04-21T12:27:51.227Z,32.92
2023-04-21T12:30:18.981Z,35.55
2023-04-21T12:32:45.915Z,33.79
2023-04-21T12:35:12.465Z,31.64
2023-04-21T12:37:39.449Z,32.04
2023-04-21T12:40:07.957Z,31.72
2023-04-21T12:42:37.300Z,30.96
2023-04-21T12:45:05.372Z,30.76
2023-04-21T12:47:32.414Z,31.59
2023-04-21T12:49:59.153Z,31.82
2023-04-21T12:52:26.945Z,30.91
2023-04-21T12:54:53.690Z,30.30
2023-04-21T12:57:21.467Z,30.14
2023-04-21T12:59:48.646Z,31.82
2023-04-21T13:02:15.743Z,32.85
2023-04-21T13:04:42.694Z,29.83
2023-04-21T13:07:09.814Z,27.28
2023-04-21T13:09:36.595Z,29.29
2023-04-21T13:12:03.330Z,28.87
2023-04-21T13:14:30.392Z,29.62
2023-04-21T13:16:57.334Z,29.47
2023-04-21T13:19:24.114Z,28.92
2023-04-21T13:21:53.855Z,29.84
2023-04-21T13:24:21.502Z,27.22
2023-04-21T13:26:48.108Z,30.05
2023-04-21T13:29:14.788Z,30.78
2023-04-21T13:31:41.508Z,31.03
2023-04-21T13:34:08.400Z,28.14
2023-04-21T13:36:35.387Z,29.76
2023-04-21T13:39:02.224Z,30.80
2023-04-21T13:41:28.919Z,29.29
2023-04-21T13:43:56.256Z,27.95
2023-04-21T13:46:23.080Z,29.95
2023-04-21T13:48:51.752Z,29.82
2023-04-21T13:51:19.336Z,28.85
2023-04-21T13:53:46.257Z,29.50
2023-04-21T13:56:14.085Z,30.30
2023-04-21T13:58:41.878Z,30.95
2023-04-21T14:01:09.191Z,29.78
2023-04-21T14:03:36.266Z,30.47
2023-04-21T14:06:03.237Z,30.03
2023-04-21T14:08:30.281Z,29.46
2023-04-21T14:10:57.631Z,29.73
2023-04-21T14:16:00.509Z,28.50
2023-04-21T14:18:27.176Z,28.90
2023-04-21T14:20:53.743Z,26.35
2023-04-21T14:23:20.271Z,27.54
2023-04-21T14:25:47.212Z,26.53
2023-04-21T14:28:14.535Z,26.60
2023-04-21T14:30:42.917Z,25.91
2023-04-21T14:33:09.614Z,27.68
2023-04-21T14:35:37.601Z,28.52
2023-04-21T14:38:04.325Z,27.13
2023-04-21T14:40:30.905Z,25.97
2023-04-21T14:42:57.635Z,26.23
2023-04-21T14:45:24.349Z,25.57
2023-04-21T14:47:51.179Z,25.53
2023-04-21T14:50:17.925Z,26.57
2023-04-21T14:52:45.292Z,28.36
2023-04-21T14:55:11.835Z,28.95
2023-04-21T14:57:38.469Z,27.27
2023-04-21T15:00:06.747Z,25.63
2023-04-21T15:02:33.477Z,26.51
2023-04-21T15:05:01.508Z,26.08
2023-04-21T15:07:28.157Z,27.23
2023-04-21T15:09:55.439Z,25.79
2023-04-21T15:12:22.228Z,24.58
2023-04-21T15:14:48.937Z,25.16
2023-04-21T15:17:15.593Z,25.59
2023-04-21T15:19:42.232Z,25.44
2023-04-21T15:22:08.842Z,27.11
2023-04-21T15:24:35.605Z,28.38
2023-04-21T15:27:02.523Z,27.44
2023-04-21T15:29:29.279Z,26.34
2023-04-21T15:31:56.101Z,26.00
2023-04-21T15:34:23.065Z,26.19
2023-04-21T15:36:49.669Z,25.30
2023-04-21T15:39:16.387Z,26.12
2023-04-21T15:41:42.997Z,27.06
2023-04-21T15:44:10.776Z,27.60
2023-04-21T15:46:37.585Z,26.95
2023-04-21T15:49:04.249Z,26.16
2023-04-21T15:51:33.391Z,27.38
2023-04-21T15:53:59.983Z,27.00
2023-04-21T15:56:27.009Z,28.41
2023-04-21T15:58:53.782Z,30.15
2023-04-21T16:01:21.723Z,30.28
2023-04-21T16:03:49.264Z,31.74
2023-04-21T16:06:16.870Z,31.76
2023-04-21T16:11:10.562Z,31.64
2023-04-21T16:13:37.349Z,33.19
2023-04-21T16:16:04.061Z,34.69
2023-04-21T16:18:30.989Z,35.19
2023-04-21T16:20:58.014Z,35.98
2023-04-21T16:23:25.300Z,37.54
2023-04-21T16:25:51.963Z,38.59
2023-04-21T16:28:18.554Z,37.65
2023-04-21T16:30:45.513Z,38.68
2023-04-21T16:33:13.220Z,37.98
2023-04-21T16:35:40.397Z,37.93
2023-04-21T16:38:10.094Z,39.02
2023-04-21T16:40:36.833Z,39.83
2023-04-21T16:43:03.537Z,40.26
2023-04-21T16:45:31.563Z,40.26
2023-04-21T16:47:58.843Z,40.62
2023-04-21T16:50:25.897Z,41.17
2023-04-21T16:52:52.887Z,41.48
2023-04-21T16:55:19.711Z,42.58
2023-04-21T16:57:46.379Z,43.01
2023-04-21T17:00:13.946Z,43.00
2023-04-21T17:02:40.638Z,43.33
2023-04-21T17:05:07.800Z,44.65
2023-04-21T17:07:35.320Z,45.71
2023-04-21T17:10:01.922Z,45.25
2023-04-21T17:12:28.527Z,44.08
2023-04-21T17:14:55.225Z,44.84
2023-04-21T17:17:22.109Z,46.41
2023-04-21T17:19:48.899Z,47.95
2023-04-21T17:22:15.746Z,49.76
2023-04-21T17:24:52.391Z,51.54
2023-04-21T17:27:19.910Z,52.38
2023-04-21T17:29:46.881Z,52.75
2023-04-21T17:32:14.247Z,54.52
2023-04-21T17:34:40.991Z,55.40
2023-04-21T17:37:07.742Z,56.73
2023-04-21T17:39:34.525Z,58.41
2023-04-21T17:42:02.594Z,58.11
2023-04-21T17:44:29.338Z,59.91
2023-04-21T17:46:56.698Z,62.12
2023-04-21T17:49:24.845Z,63.96
2023-04-21T17:51:52.001Z,65.76
2023-04-21T17:54:18.920Z,68.11
2023-04-21T17:56:46.196Z,72.09
2023-04-21T17:59:13.359Z,79.46
2023-04-21T18:01:40.282Z,82.90
2023-04-21T18:04:07.348Z,84.75
2023-04-21T18:06:34.868Z,89.16
2023-04-21T18:09:01.733Z,91.99
2023-04-21T18:11:28.545Z,91.21
2023-04-21T18:13:55.413Z,94.40
2023-04-21T18:16:22.289Z,100.00
2023-04-21T18:18:50.070Z,100.00
2023-04-21T18:21:17.017Z,100.00
2023-04-21T18:23:43.962Z,100.00
2023-04-21T18:26:10.894Z,100.00
2023-04-21T18:28:37.800Z,96.07
2023-04-21T18:31:04.517Z,79.50
2023-04-21T18:33:31.314Z,78.42
2023-04-21T18:35:58.102Z,70.37
2023-04-21T18:38:24.681Z,70.25
2023-04-21T18:40:51.427Z,70.14
2023-04-21T18:43:18.069Z,71.58
2023-04-21T18:45:44.624Z,67.31
2023-04-21T18:48:11.391Z,68.99
2023-04-21T18:50:40.327Z,68.46
2023-04-21T18:53:08.461Z,65.17
2023-04-21T18:55:36.301Z,68.47
2023-04-21T18:58:03.712Z,68.53
2023-04-21T19:00:32.091Z,68.82
2023-04-21T19:03:03.741Z,65.82
2023-04-21T19:05:31.871Z,71.26
2023-04-21T19:07:58.710Z,74.29
2023-04-21T19:10:26.233Z,74.16
2023-04-21T19:12:53.206Z,73.73
2023-04-21T19:15:20.988Z,73.47
2023-04-21T19:17:47.677Z,72.83
2023-04-21T19:20:14.382Z,75.51
2023-04-21T19:22:41.762Z,75.64
2023-04-21T19:25:08.723Z,73.85
2023-04-21T19:27:36.139Z,72.51
2023-04-21T19:30:03.746Z,70.99
2023-04-21T19:32:30.853Z,73.13
2023-04-21T19:34:57.810Z,72.81
2023-04-21T19:37:26.443Z,73.54
2023-04-21T19:39:53.386Z,68.72
2023-04-21T19:42:20.105Z,69.47
2023-04-21T19:44:46.674Z,70.32
2023-04-21T19:47:13.776Z,68.18
2023-04-21T19:49:40.486Z,66.67
2023-04-21T19:52:07.248Z,68.45
2023-04-21T19:54:33.978Z,66.98
2023-04-21T19:57:01.395Z,68.26
2023-04-21T19:59:28.334Z,71.84
2023-04-21T20:01:54.947Z,74.58
2023-04-21T20:04:21.739Z,76.48
2023-04-21T20:06:48.814Z,78.64
2023-04-21T20:09:16.034Z,81.78
2023-04-21T20:11:43.327Z,84.21
2023-04-21T20:14:09.944Z,87.52
2023-04-21T20:16:36.909Z,89.75
2023-04-21T20:19:04.630Z,88.02
2023-04-21T20:21:32.447Z,91.32
2023-04-21T20:23:59.242Z,90.90
2023-04-21T20:26:25.945Z,91.99
2023-04-21T20:28:52.707Z,93.93
2023-04-21T20:31:23.646Z,93.85
2023-04-21T20:33:50.613Z,94.70
2023-04-21T20:36:17.813Z,95.43
2023-04-21T20:38:46.248Z,95.23
2023-04-21T20:41:13.440Z,97.45
2023-04-21T20:43:40.490Z,99.38
2023-04-21T20:46:08.816Z,100.00
2023-04-21T20:48:35.553Z,100.00
2023-04-21T20:51:02.808Z,100.00
2023-04-21T20:53:29.356Z,100.00
2023-04-21T20:55:56.113Z,100.00
2023-04-21T20:58:24.371Z,100.00
2023-04-21T21:00:51.083Z,100.00
2023-04-21T21:03:20.448Z,100.00
2023-04-21T21:05:47.938Z,100.00
2023-04-21T21:08:15.161Z,100.00
2023-04-21T21:10:41.909Z,100.00
2023-04-21T21:13:08.714Z,100.00
2023-04-21T21:15:35.531Z,100.00
2023-04-21T21:18:02.525Z,100.00
2023-04-21T21:20:29.549Z,100.00
2023-04-21T21:22:56.196Z,100.00
2023-04-21T21:25:22.865Z,100.00
2023-04-21T21:27:49.983Z,100.00
2023-04-21T21:30:16.659Z,100.00
2023-04-21T21:32:43.570Z,100.00
2023-04-21T21:35:12.061Z,100.00
2023-04-21T21:37:39.603Z,100.00
2023-04-21T21:40:07.185Z,100.00
2023-04-21T21:42:33.862Z,100.00
2023-04-21T21:45:01.166Z,100.00
2023-04-21T21:47:27.852Z,100.00
2023-04-21T21:49:56.113Z,100.00
2023-04-21T21:52:22.772Z,100.00
2023-04-21T21:54:49.418Z,100.00
2023-04-21T21:57:16.801Z,100.00
2023-04-21T21:59:43.936Z,100.00
2023-04-21T22:02:10.729Z,100.00
2023-04-21T22:04:38.039Z,100.00
2023-04-21T22:07:05.141Z,100.00
2023-04-21T22:09:31.807Z,100.00
2023-04-21T22:11:58.611Z,100.00
2023-04-21T22:14:25.396Z,100.00
2023-04-21T22:16:52.587Z,100.00
2023-04-21T22:19:19.432Z,100.00
2023-04-21T22:21:46.254Z,100.00
2023-04-21T22:24:13.352Z,100.00
2023-04-21T22:26:40.056Z,100.00
2023-04-21T22:29:07.008Z,100.00
2023-04-21T22:31:33.893Z,100.00
2023-04-21T22:34:01.455Z,100.00
2023-04-21T22:36:28.375Z,100.00
2023-04-21T22:38:54.929Z,100.00
2023-04-21T22:41:21.659Z,100.00
2023-04-21T22:43:48.262Z,100.00
2023-04-21T22:46:15.333Z,100.00
2023-04-21T22:48:41.988Z,100.00
2023-04-21T22:51:08.865Z,100.00
2023-04-21T22:53:35.509Z,100.00
2023-04-21T22:56:02.356Z,100.00
2023-04-21T22:58:29.015Z,100.00
2023-04-21T23:00:55.613Z,100.00
2023-04-21T23:03:23.179Z,100.00
2023-04-21T23:05:49.934Z,100.00
2023-04-21T23:08:16.704Z,100.00
2023-04-21T23:10:43.398Z,100.00
2023-04-21T23:13:10.244Z,100.00
2023-04-21T23:15:36.809Z,100.00
2023-04-21T23:18:03.564Z,100.00
2023-04-21T23:20:31.176Z,100.00
2023-04-21T23:22:58.014Z,100.00
2023-04-21T23:25:24.852Z,100.00
2023-04-21T23:27:51.426Z,100.00
2023-04-21T23:30:18.165Z,100.00
2023-04-21T23:32:45.425Z,100.00
2023-04-21T23:35:12.164Z,100.00
2023-04-21T23:37:39.030Z,100.00
2023-04-21T23:40:09.128Z,100.00
2023-04-21T23:42:36.279Z,100.00
2023-04-21T23:45:04.280Z,100.00
2023-04-21T23:47:31.084Z,100.00
2023-04-21T23:49:58.155Z,100.00
2023-04-21T23:52:25.042Z,100.00
2023-04-21T23:54:51.801Z,100.00
2023-04-21T23:57:18.675Z,100.00
2023-04-21T23:59:45.900Z,100.00
